FW2389 Orient NY US current weather conditions

sailwx.info

Wind from 245 at 1 knots gusting 2

Last reported at 2019-Dec-08 23:01 UTC.
Time now 2019-Dec-08 23:38 UTC

Location: N 41°09' W 072°15'.
View on Google Maps.

See reports from other nearby stations

  
Tides and Currents Weather Stations Pressure Air Temp Water Temp Dewpoint Dewpoint Depression Visibility Wind Speed Wind Dir Waves Ship Positions
date/time (UTC)wind fromknots sea level pressurealtimeterstation pressurevisibilityair tempwater tempwave heightnotes
2019-Dec-08 23:01 245 1 gusting 2
2019-Dec-08 22:45 280 0 gusting 1
2019-Dec-08 22:30 266 0 gusting 2
2019-Dec-08 22:15 305 2 gusting 3
2019-Dec-08 22:02 272 1 gusting 3
2019-Dec-08 21:47 252 2 gusting 4
2019-Dec-08 21:32 250 0 gusting 3
2019-Dec-08 21:17 265 2 gusting 4
2019-Dec-08 21:01 266 1 gusting 4
2019-Dec-08 20:46 264 3 gusting 6
2019-Dec-08 20:31 272 4 gusting 7
2019-Dec-08 20:16 264 6 gusting 9
2019-Dec-08 20:00 225 8 gusting 12
2019-Dec-08 19:45 229 8 gusting 13
2019-Dec-08 19:30 217 8 gusting 12
2019-Dec-08 19:15 208 7 gusting 10
2019-Dec-08 19:00 239 2 gusting 6
2019-Dec-08 18:45 221 3 gusting 6
2019-Dec-08 18:32 227 4 gusting 8
2019-Dec-08 18:16 266 6 gusting 9
2019-Dec-08 18:01 242 5 gusting 10
2019-Dec-08 17:46 233 6 gusting 9
2019-Dec-08 17:31 207 3 gusting 6
2019-Dec-08 17:16 219 3 gusting 6
2019-Dec-08 17:01 260 3 gusting 6
2019-Dec-08 16:46 263 4 gusting 6
2019-Dec-08 16:30 240 3 gusting 6
2019-Dec-08 16:15 233 2 gusting 6
2019-Dec-08 16:00 211 5 gusting 6
2019-Dec-08 15:45 221 4 gusting 6
2019-Dec-08 15:30 184 3 gusting 8
2019-Dec-08 15:16 250 4 gusting 6
2019-Dec-08 15:02 236 3 gusting 6
2019-Dec-08 14:46 217 2 gusting 6
2019-Dec-08 14:31 221 0 gusting 4
2019-Dec-08 14:16 255 1 gusting 5
2019-Dec-08 14:01 228 4 gusting 5
2019-Dec-08 13:46 118 2 gusting 4
2019-Dec-08 13:31 103 2 gusting 4
2019-Dec-08 13:15 107
2019-Dec-08 13:01 263
2019-Dec-08 12:45 263
2019-Dec-08 12:30 263 0 gusting 2
2019-Dec-08 12:15 262 0 gusting 1
2019-Dec-08 12:00 316
2019-Dec-08 11:31 340
2019-Dec-08 11:16 346
2019-Dec-08 11:01 323 1 gusting 3
2019-Dec-08 10:46 037
2019-Dec-08 10:32 343
2019-Dec-08 10:16 316 0 gusting 2
2019-Dec-08 10:01 045 0 gusting 4
2019-Dec-08 09:45 359 2 gusting 6
2019-Dec-08 09:30 358 1 gusting 6
2019-Dec-08 09:15 352 2 gusting 8
2019-Dec-08 09:00 354 3 gusting 7
2019-Dec-08 08:45 343 5 gusting 8
2019-Dec-08 08:30 047 4 gusting 8
2019-Dec-08 08:15 340 6 gusting 10
2019-Dec-08 08:02 034 6 gusting 10
2019-Dec-08 07:46 305 4 gusting 9
2019-Dec-08 07:31 018 4 gusting 10
2019-Dec-08 07:17 349 5 gusting 10
2019-Dec-08 07:02 034 3 gusting 13
2019-Dec-08 06:46 359 6 gusting 11
2019-Dec-08 06:31 325 6 gusting 12
2019-Dec-08 06:15 023 6 gusting 12
2019-Dec-08 06:00 050 5 gusting 13
2019-Dec-08 05:45 335 6 gusting 13
2019-Dec-08 05:30 342 7 gusting 14
2019-Dec-08 05:15 344 5 gusting 14
2019-Dec-08 05:00 325 6 gusting 13
2019-Dec-08 04:45 012 7 gusting 15
2019-Dec-08 04:32 013 9 gusting 16
2019-Dec-08 04:16 018 7 gusting 14
2019-Dec-08 04:01 309 10 gusting 18
2019-Dec-08 03:46 022 6 gusting 16
2019-Dec-08 03:31 044 6 gusting 12
2019-Dec-08 03:16 335 6 gusting 13
2019-Dec-08 03:01 347 4 gusting 12
2019-Dec-08 02:45 342 6 gusting 15
2019-Dec-08 02:31 349 6 gusting 14
2019-Dec-08 02:15 017 7 gusting 13
2019-Dec-08 02:00 339 8 gusting 15
2019-Dec-08 01:45 038 5 gusting 13
2019-Dec-08 01:30 051 5 gusting 11
2019-Dec-08 01:15 360 5 gusting 13
2019-Dec-08 01:04 359 7 gusting 12
2019-Dec-08 00:47 340 6 gusting 12
2019-Dec-08 00:32 330 8 gusting 14
2019-Dec-08 00:16 020 7 gusting 16
2019-Dec-08 00:00 022 6 gusting 17
2019-Dec-07 23:46 005 9 gusting 14
2019-Dec-07 23:31 323 6 gusting 13
2019-Dec-07 23:16 345 6 gusting 13
2019-Dec-07 23:00 010 6 gusting 11
2019-Dec-07 22:46 337 5 gusting 11
2019-Dec-07 22:30 336 5 gusting 12
2019-Dec-07 22:15 314 7 gusting 13
2019-Dec-07 22:00 307 8 gusting 14
2019-Dec-07 21:47 321 6 gusting 13
2019-Dec-07 21:31 311 7 gusting 14
2019-Dec-07 21:16 349 6 gusting 12
2019-Dec-07 21:01 344 6 gusting 13
2019-Dec-07 20:46 309 5 gusting 11
2019-Dec-07 20:31 326 7 gusting 12
2019-Dec-07 20:16 317 8 gusting 14
2019-Dec-07 20:01 328 6 gusting 13
2019-Dec-07 19:45 331 7 gusting 14
2019-Dec-07 19:31 333 4 gusting 13
2019-Dec-07 19:15 316 6 gusting 13
2019-Dec-07 19:00 347 6 gusting 13
2019-Dec-07 18:45 321 5 gusting 14
2019-Dec-07 18:30 319 6 gusting 14
2019-Dec-07 18:15 350 6 gusting 12
2019-Dec-07 18:00 318 6 gusting 14
2019-Dec-07 17:45 338 8 gusting 16
2019-Dec-07 17:31 013 6 gusting 16
2019-Dec-07 17:17 015 8 gusting 14
2019-Dec-07 17:01 316 8 gusting 15
2019-Dec-07 16:46 003 8 gusting 15
2019-Dec-07 16:31 356 6 gusting 17
2019-Dec-07 16:17 360 7 gusting 17
2019-Dec-07 16:01 349 6 gusting 15
2019-Dec-07 15:47 011 6 gusting 13
2019-Dec-07 15:31 010 7 gusting 15
2019-Dec-07 15:15 017 6 gusting 14
2019-Dec-07 15:01 330 6 gusting 15
2019-Dec-07 14:45 359 6 gusting 14
2019-Dec-07 14:30 338 10 gusting 17
2019-Dec-07 14:15 338 6 gusting 16
2019-Dec-07 14:00 004 8 gusting 16
2019-Dec-07 13:45 038 7 gusting 18
2019-Dec-07 13:30 340 7 gusting 17
2019-Dec-07 13:15 348 9 gusting 17
2019-Dec-07 13:03 017 11 gusting 20
2019-Dec-07 12:46 338 8 gusting 15
2019-Dec-07 12:31 313 6 gusting 16
2019-Dec-07 12:17 345 12 gusting 19
2019-Dec-07 12:01 331 10 gusting 17
2019-Dec-07 11:46 030 10 gusting 17
2019-Dec-07 11:31 323 9 gusting 17
2019-Dec-07 11:15 334 8 gusting 17
2019-Dec-07 11:00 346 6 gusting 14
2019-Dec-07 10:45 334 7 gusting 13
2019-Dec-07 10:30 348 8 gusting 14
2019-Dec-07 10:16 357 7 gusting 17
2019-Dec-07 09:45 328 11 gusting 17
2019-Dec-07 09:31 346 8 gusting 16
2019-Dec-07 09:16 323 9 gusting 17
2019-Dec-07 09:03 344 8 gusting 16
2019-Dec-07 08:46 348 7 gusting 19
2019-Dec-07 08:33 359 11 gusting 19
2019-Dec-07 08:16 020 7 gusting 19
2019-Dec-07 08:01 328 11 gusting 22
2019-Dec-07 07:45 330 10 gusting 21
2019-Dec-07 07:30 313 11 gusting 21
2019-Dec-07 07:15 357 12 gusting 20
2019-Dec-07 07:00 356 7 gusting 19
2019-Dec-07 06:45 337 6 gusting 17
2019-Dec-07 06:30 332 7 gusting 18
2019-Dec-07 06:17 277 6 gusting 17
2019-Dec-07 06:02 350 9 gusting 16
2019-Dec-07 05:46 356 8 gusting 19
2019-Dec-07 05:31 001 11 gusting 17
2019-Dec-07 05:16 004 8 gusting 17
2019-Dec-07 05:01 297 8 gusting 19
2019-Dec-07 04:46 345 11 gusting 20
2019-Dec-07 04:31 345 11 gusting 26
2019-Dec-07 04:16 347 13 gusting 24
2019-Dec-07 04:00 347 13 gusting 26
2019-Dec-07 03:46 015 13 gusting 21
2019-Dec-07 03:30 345 13 gusting 24
2019-Dec-07 03:15 011 11 gusting 22
2019-Dec-07 03:00 327 12 gusting 22
2019-Dec-07 02:45 328 11 gusting 23
2019-Dec-07 02:30 291 13 gusting 25
2019-Dec-07 02:16 307 14 gusting 25
2019-Dec-07 02:01 290 15 gusting 23
2019-Dec-07 01:46 315 13 gusting 20
2019-Dec-07 01:31 305 15 gusting 25
2019-Dec-07 01:16 309 16 gusting 22
2019-Dec-07 01:01 296 14 gusting 24
2019-Dec-07 00:47 290 11 gusting 19
2019-Dec-07 00:31 286 8 gusting 17
2019-Dec-07 00:17 281 9 gusting 19
2019-Dec-07 00:02 293 12 gusting 20
2019-Dec-06 23:46 269 16 gusting 25
2019-Dec-06 23:32 267 10 gusting 15
2019-Dec-06 23:16 274 10 gusting 18
2019-Dec-06 23:01 267 14 gusting 20